Flight Track Log - Related Links

Times and Time Zones

All times are in EDT time to prevent confusion due to time zone crossing. See the ASQ5685 flight status page for this flight to view local times or setup timezone preferences in your user account.

Time Position Orientation Groundspeed Altitude Reporting Facility
EDT Latitude Longitude Course Direction KTS MPH feet Rate Location/Type
Fri 09:34:19 AM 33.6333 -84.4500 48° Northeast 165 190 1,700  Level Atlanta TRACON
Fri 09:35:19 AM 33.6167 -84.5167 253° West 232 267 3,000 1,451 Climbing Atlanta TRACON
Fri 09:35:50 AM 33.5992 -84.5575 243° Southwest 265 305 3,900 2,176 Climbing Atlanta Center
Fri 09:36:50 AM 33.5342 -84.5872 201° Southwest 249 287 6,300 2,450 Climbing Atlanta Center
Fri 09:37:00 AM 33.7564 -83.9672 54° Northeast  Level FlightAware Approximate
Fri 09:37:50 AM 33.4592 -84.5517 158° South 287 330 8,800  Level Atlanta Center
Fri 09:38:00 AM 33.8146 -83.8703 54° Northeast  Level FlightAware Approximate
Fri 09:38:50 AM 33.4553 -84.4619 93° East 292 336 10,300  Level Atlanta Center
Fri 09:39:00 AM 33.8736 -83.7740 48° Northeast  Level FlightAware Approximate
Fri 09:39:50 AM 33.4558 -84.3500 90° East 323 372 11,300  Level Atlanta Center
Fri 09:40:50 AM 33.4997 -84.2481 63° Northeast 338 389 13,100 1,650 Climbing Atlanta Center
Fri 09:41:50 AM 33.5897 -84.1933 27° Northeast 324 373 14,600 1,450 Climbing Atlanta Center
Fri 09:42:50 AM 33.6794 -84.1311 30° Northeast 354 407 16,000 1,350 Climbing Atlanta Center
Fri 09:43:50 AM 33.7547 -84.0489 42° Northeast 365 420 17,300 1,150 Climbing Atlanta Center
Fri 09:44:50 AM 33.8108 -83.9439 57° Northeast 368 423 18,300 1,150 Climbing Atlanta Center
Fri 09:45:50 AM 33.8714 -83.8286 58° Northeast 368 423 19,600 1,350 Climbing Atlanta Center
Fri 09:46:50 AM 33.9253 -83.7233 58° Northeast 368 423 21,000 1,300 Climbing Atlanta Center
Fri 09:47:50 AM 33.9856 -83.6278 53° Northeast 362 417 22,200 1,100 Climbing Atlanta Center
Fri 09:48:50 AM 34.0478 -83.5247 54° Northeast 367 422 23,200 900 Climbing Atlanta Center
Fri 09:49:50 AM 34.1100 -83.4267 53° Northeast 367 422 24,000 850 Climbing Atlanta Center
Fri 09:50:50 AM 34.1761 -83.3231 52° Northeast 374 430 24,900 850 Climbing Atlanta Center
Fri 09:51:50 AM 34.2381 -83.2222 53° Northeast 374 430 25,700 800 Climbing Atlanta Center
Fri 09:52:50 AM 34.3000 -83.1183 54° Northeast 380 437 26,500 650 Climbing Atlanta Center
Fri 09:53:50 AM 34.3661 -83.0144 52° Northeast 380 437 27,000 250 Climbing Atlanta Center
Fri 09:54:50 AM 34.4339 -82.9081 52° Northeast 391 450 27,000  Level Atlanta Center
Fri 09:55:50 AM 34.4997 -82.7986 54° Northeast 396 456 27,000  Level Atlanta Center
Fri 09:56:50 AM 34.5572 -82.7044 53° Northeast 396 456 27,000  Level Atlanta Center
Fri 09:57:50 AM 34.6206 -82.5975 54° Northeast 391 450 27,000  Level Atlanta Center
Fri 09:58:50 AM 34.6964 -82.4850 51° Northeast 385 443 27,000  Level Atlanta Center
Fri 09:59:50 AM 34.7597 -82.3803 54° Northeast 385 443 27,000  Level Atlanta Center
Fri 10:00:50 AM 34.8250 -82.2700 54° Northeast 390 449 27,000  Level Atlanta Center
Fri 10:01:50 AM 34.8903 -82.1650 53° Northeast 390 449 27,000  Level Atlanta Center
Fri 10:02:50 AM 34.9533 -82.0622 53° Northeast 390 449 27,000  Level Atlanta Center
Fri 10:03:50 AM 35.0183 -81.9567 53° Northeast 390 449 27,000  Level Atlanta Center
Fri 10:04:50 AM 35.0731 -81.8561 56° Northeast 390 449 27,000  Level Atlanta Center
Fri 10:05:50 AM 35.1314 -81.7456 57° Northeast 390 449 27,000  Level Atlanta Center
Fri 10:06:50 AM 35.1897 -81.6347 57° Northeast 384 442 27,000  Level Atlanta Center
Fri 10:07:50 AM 35.2481 -81.5211 58° Northeast 392 451 27,000  Level Atlanta Center
Fri 10:08:50 AM 35.3083 -81.4097 56° Northeast 392 451 27,000  Level Atlanta Center
Fri 10:09:50 AM 35.3664 -81.2958 58° Northeast 392 451 27,000  Level Atlanta Center
Fri 10:10:50 AM 35.4242 -81.1817 58° Northeast 392 451 27,000  Level Atlanta Center
Fri 10:11:50 AM 35.4819 -81.0675 58° Northeast 392 451 27,000  Level Atlanta Center
Fri 10:12:50 AM 35.5419 -80.9556 57° Northeast 397 457 27,000  Level Atlanta Center
Fri 10:13:50 AM 35.6014 -80.8411 57° Northeast 397 457 27,000  Level Atlanta Center
Fri 10:14:50 AM 35.6631 -80.7261 57° Northeast 397 457 27,000  Level Atlanta Center
Fri 10:16:33 AM 35.7597 -80.5372 58° Northeast 393 452 27,000  Level Washington Center
Fri 10:17:33 AM 35.8186 -80.4231 58° Northeast 399 459 27,000  Level Washington Center
Fri 10:18:34 AM 35.8819 -80.2964 58° Northeast 399 459 27,000  Level Washington Center
Fri 10:19:31 AM 35.9408 -80.1792 58° Northeast 399 459 27,000  Level Washington Center
Fri 10:20:32 AM 36.0014 -80.0697 56° Northeast 391 450 27,000  Level Washington Center
Fri 10:21:33 AM 36.0619 -79.9550 57° Northeast 386 444 27,000  Level Washington Center
Fri 10:22:33 AM 36.1244 -79.8428 55° Northeast 386 444 27,000  Level Washington Center
Fri 10:23:31 AM 36.1867 -79.7303 56° Northeast 391 450 27,000  Level Washington Center
Fri 10:24:33 AM 36.2511 -79.6153 55° Northeast 396 456 27,000  Level Washington Center
Fri 10:25:31 AM 36.3133 -79.5025 56° Northeast 396 456 27,000  Level Washington Center
Fri 10:26:31 AM 36.3775 -79.3919 54° Northeast 396 456 27,000  Level Washington Center
Fri 10:27:32 AM 36.4328 -79.2889 56° Northeast 396 456 27,000  Level Washington Center
Fri 10:28:33 AM 36.5033 -79.1631 55° Northeast 396 456 27,000  Level Washington Center
Fri 10:29:33 AM 36.5694 -79.0497 54° Northeast 396 456 27,000 -298 Level Washington Center
Fri 10:30:34 AM 36.6375 -78.9283 55° Northeast 401 461 26,400 -814 Descending Washington Center
Fri 10:31:31 AM 36.6992 -78.8119 57° Northeast 427 491 25,400 -712 Descending Washington Center
Fri 10:32:32 AM 36.7669 -78.6903 55° Northeast 433 498 25,000 -197 Descending Washington Center
Fri 10:33:33 AM 36.8306 -78.5708 56° Northeast 422 486 25,000 -347 Level Washington Center
Fri 10:34:33 AM 36.9208 -78.4550 46° Northeast 422 486 24,300 -1,017 Descending Washington Center
Fri 10:35:31 AM 37.0214 -78.3494 40° Northeast 434 499 23,000 -1,169 Descending Washington Center
Fri 10:36:31 AM 37.1217 -78.2486 39° Northeast 450 518 22,000 -496 Descending Washington Center
Fri 10:37:32 AM 37.2008 -78.1681 39° Northeast 458 527 22,000  Level Washington Center
Fri 10:38:32 AM 37.3072 -78.0697 36° Northeast 453 521 22,000  Level Washington Center
Fri 10:39:33 AM 37.4128 -78.0000 28° Northeast 436 502 22,000 -149 Level Washington Center
Fri 10:40:33 AM 37.5167 -77.9219 31° Northeast 431 496 21,700 -712 Descending Washington Center
Fri 10:41:31 AM 37.6244 -77.8467 29° Northeast 431 496 20,600 -1,462 Descending Washington Center
Fri 10:42:32 AM 37.7322 -77.7686 30° Northeast 436 502 18,800 -2,016 Descending Washington Center
Fri 10:43:33 AM 37.8358 -77.6953 29° Northeast 436 502 16,500 -2,281 Descending Washington Center
Fri 10:44:33 AM 37.9392 -77.6219 29° Northeast 425 489 14,200 -1,780 Descending Washington Center
Fri 10:45:31 AM 38.0364 -77.5533 29° Northeast 414 476 13,000 -610 Descending Washington Center
Fri 10:46:31 AM 38.1333 -77.4819 30° Northeast 403 464 13,000 -248 Level Washington Center
Fri 10:47:32 AM 38.2175 -77.4258 28° Northeast 380 437 12,500 -1,230 Descending Washington Center
Fri 10:48:33 AM 38.2975 -77.3803 24° Northeast 336 387 10,500 -1,950 Descending Washington Center
Fri 10:49:32 AM 38.3811 -77.3742 North 297 342 8,600 -1,900 Descending Washington Center
Fri 10:50:33 AM 38.4603 -77.3708 North 297 342 6,700 -1,785 Descending Washington Center
Fri 10:51:33 AM 38.5375 -77.3672 North 292 336 5,000 -1,050 Descending Washington Center
Fri 10:52:33 AM 38.6147 -77.3667 360° North 287 330 4,600 -504 Descending Washington Center
Fri 10:53:32 AM 38.6897 -77.3631 North 281 323 4,000 -300 Descending Washington Center
Fri 10:54:33 AM 38.7692 -77.3597 North 275 316 4,000  Level Washington Center
Fri 10:55:33 AM 38.8464 -77.3561 North 275 316 4,000 -254 Level Washington Center
Fri 10:56:31 AM 38.9256 -77.3528 North 275 316 3,500 -517 Descending Washington Center

Login

Don't have an account? Register now (free) for customized features, flight alerts, and more!